Time;durP1;ratioP1;P1;durP2;ratioP2;P2;SDS_P1;SDS_P2;PMS_P1;PMS_P2;Temp;Humidity;BMP_temperature;BMP_pressure;BME280_temperature;BME280_humidity;BME280_pressure;Samples;Min_cycle;Max_cycle;Signal;HPM_P1;HPM_P2
2021/04/12 00:00:07;;;;;;;0.50;0.50;;;2.70;99.90;;;;;;2080241;28;20165;-63
2021/04/12 00:01:25;;;;;;;0.73;0.73;;;2.80;99.90;;;;;;2080373;28;20201;-64
2021/04/12 00:02:46;;;;;;;0.82;0.60;;;2.70;99.90;;;;;;2080208;28;20185;-65
2021/04/12 00:04:03;;;;;;;0.68;0.68;;;2.70;99.90;;;;;;2080317;28;20167;-65
2021/04/12 00:05:32;;;;;;;0.68;0.68;;;2.70;99.90;;;;;;2080276;28;20177;-65
2021/04/12 00:06:43;;;;;;;0.70;0.70;;;2.70;99.90;;;;;;2080082;28;20177;-65
2021/04/12 00:08:03;;;;;;;0.60;0.60;;;2.50;99.90;;;;;;2073526;28;20166;-65
2021/04/12 00:09:36;;;;;;;0.60;0.60;;;2.30;99.90;;;;;;2074607;28;20178;-64
2021/04/12 00:11:00;;;;;;;0.50;0.50;;;2.20;99.90;;;;;;2072526;28;20212;-64
2021/04/12 00:12:50;;;;;;;0.60;0.60;;;2.20;99.90;;;;;;2080023;28;20934;-64
2021/04/12 00:13:58;;;;;;;0.55;0.55;;;2.10;99.90;;;;;;2075459;28;20192;-64
2021/04/12 00:15:11;;;;;;;2.55;0.70;;;2.10;99.90;;;;;;2073721;28;20272;-65
2021/04/12 00:16:21;;;;;;;0.60;0.60;;;2.10;99.90;;;;;;2081865;28;20203;-65
2021/04/12 00:17:43;;;;;;;0.60;0.60;;;2.10;99.90;;;;;;2081869;28;20243;-65
2021/04/12 00:19:09;;;;;;;0.50;0.50;;;2.00;99.90;;;;;;2076587;28;20226;-65
2021/04/12 00:20:40;;;;;;;0.68;0.55;;;2.00;99.90;;;;;;2082048;28;20199;-65
2021/04/12 00:22:10;;;;;;;0.60;0.50;;;2.00;99.90;;;;;;2082289;28;20282;-65
2021/04/12 00:23:41;;;;;;;0.50;0.50;;;2.00;99.90;;;;;;2078048;28;20314;-64
2021/04/12 00:25:41;;;;;;;0.88;0.50;;;2.00;99.90;;;;;;2077756;28;20215;-64
2021/04/12 00:27:11;;;;;;;0.40;0.40;;;2.00;99.90;;;;;;2081735;28;20218;-64
2021/04/12 00:28:27;;;;;;;0.40;0.40;;;2.00;99.90;;;;;;2081869;28;20203;-65
2021/04/12 00:29:52;;;;;;;0.40;0.40;;;2.00;99.90;;;;;;2081632;28;20192;-65
2021/04/12 00:31:06;;;;;;;0.47;0.47;;;1.90;99.90;;;;;;2081684;28;20215;-64
2021/04/12 00:32:21;;;;;;;0.40;0.40;;;1.80;99.90;;;;;;2081902;28;20180;-65
2021/04/12 00:33:44;;;;;;;0.30;0.30;;;1.80;99.90;;;;;;2081734;28;20658;-65
2021/04/12 00:35:04;;;;;;;0.47;0.47;;;1.80;99.90;;;;;;2076854;28;20168;-63
2021/04/12 00:36:24;;;;;;;0.40;0.40;;;1.80;99.90;;;;;;2081865;28;20234;-64
2021/04/12 00:37:45;;;;;;;0.40;0.40;;;1.80;99.90;;;;;;2081717;28;20828;-65
2021/04/12 00:39:08;;;;;;;0.40;0.40;;;1.80;99.90;;;;;;2073562;28;20169;-64
2021/04/12 00:40:22;;;;;;;0.30;0.30;;;1.80;99.90;;;;;;2071449;28;20188;-65
2021/04/12 00:41:52;;;;;;;0.32;0.32;;;1.80;99.90;;;;;;2074680;28;20220;-64
2021/04/12 00:43:13;;;;;;;0.20;0.20;;;1.80;99.90;;;;;;2081737;28;20290;-65
2021/04/12 00:44:39;;;;;;;0.32;0.32;;;1.80;99.90;;;;;;2081878;28;20173;-64
2021/04/12 00:46:23;;;;;;;0.20;0.20;;;1.80;99.90;;;;;;2082148;28;20206;-65
2021/04/12 00:47:48;;;;;;;0.20;0.20;;;1.80;99.90;;;;;;2082364;28;20548;-64
2021/04/12 00:49:30;;;;;;;0.40;0.40;;;1.80;99.90;;;;;;2081750;28;20171;-64
2021/04/12 00:51:00;;;;;;;0.30;0.30;;;1.70;99.90;;;;;;2081452;28;20181;-64
2021/04/12 00:52:26;;;;;;;1.17;0.40;;;1.70;99.90;;;;;;2081602;28;20169;-65
2021/04/12 00:54:29;;;;;;;0.40;0.40;;;1.80;99.90;;;;;;2081582;28;20165;-64
2021/04/12 00:55:41;;;;;;;1.42;0.38;;;1.80;99.90;;;;;;2066047;28;20290;-64
2021/04/12 00:57:03;;;;;;;1.00;0.40;;;1.70;99.90;;;;;;2081613;28;20253;-63
2021/04/12 00:58:21;;;;;;;0.32;0.32;;;1.70;99.90;;;;;;2081578;28;20264;-63
2021/04/12 00:59:33;;;;;;;0.40;0.40;;;1.70;99.90;;;;;;2082188;28;20174;-64
2021/04/12 01:01:12;;;;;;;0.35;0.35;;;1.60;99.90;;;;;;2081271;28;20183;-64
2021/04/12 01:02:30;;;;;;;0.30;0.30;;;1.60;99.90;;;;;;2081799;28;20626;-64
2021/04/12 01:04:01;;;;;;;1.23;0.40;;;1.50;99.90;;;;;;2082150;28;20180;-64
2021/04/12 01:05:48;;;;;;;0.40;0.40;;;1.50;99.90;;;;;;2082008;28;20255;-62
2021/04/12 01:07:19;;;;;;;0.30;0.30;;;1.50;99.90;;;;;;2084387;28;20190;-64
2021/04/12 01:08:48;;;;;;;0.30;0.30;;;1.50;99.90;;;;;;2082002;28;20703;-64
2021/04/12 01:10:06;;;;;;;0.30;0.30;;;1.40;99.90;;;;;;2082044;28;20620;-63
2021/04/12 01:11:41;;;;;;;0.30;0.30;;;1.40;99.90;;;;;;2081637;28;20211;-64
2021/04/12 01:13:03;;;;;;;0.30;0.30;;;1.40;99.90;;;;;;2081841;28;20191;-63
2021/04/12 01:14:30;;;;;;;0.30;0.30;;;1.30;99.90;;;;;;2081364;28;20191;-63
2021/04/12 01:16:08;;;;;;;0.30;0.30;;;1.30;99.90;;;;;;2081558;28;20196;-64
2021/04/12 01:17:36;;;;;;;0.30;0.30;;;1.30;99.90;;;;;;2081763;28;20183;-64
2021/04/12 01:19:11;;;;;;;0.30;0.30;;;1.30;99.90;;;;;;2081834;28;20695;-64
2021/04/12 01:20:59;;;;;;;0.40;0.40;;;1.30;99.90;;;;;;2081892;28;20317;-64
2021/04/12 01:22:30;;;;;;;0.40;0.40;;;1.30;99.90;;;;;;2064183;28;20197;-64
2021/04/12 01:24:01;;;;;;;0.40;0.40;;;1.40;99.90;;;;;;2064462;28;20204;-64
2021/04/12 01:25:51;;;;;;;0.50;0.50;;;1.40;99.90;;;;;;2064529;28;20184;-64
2021/04/12 01:27:22;;;;;;;1.42;0.40;;;1.40;99.90;;;;;;2064475;28;20280;-64
2021/04/12 01:29:03;;;;;;;0.50;0.50;;;1.50;99.90;;;;;;2081876;28;20201;-64
2021/04/12 01:30:43;;;;;;;0.47;0.47;;;1.50;99.90;;;;;;2081653;28;20550;-64
2021/04/12 01:32:01;;;;;;;0.40;0.40;;;1.50;99.90;;;;;;2081524;28;20233;-64
2021/04/12 01:33:43;;;;;;;0.50;0.50;;;1.40;99.90;;;;;;2081866;28;20164;-64
2021/04/12 01:35:21;;;;;;;0.68;0.55;;;1.40;99.90;;;;;;2080984;28;20178;-64
2021/04/12 01:36:52;;;;;;;0.47;0.45;;;1.40;99.90;;;;;;2081086;28;20171;-64
2021/04/12 01:38:27;;;;;;;0.40;0.40;;;1.40;99.90;;;;;;2081265;28;20669;-64
2021/04/12 01:39:42;;;;;;;0.50;0.50;;;1.30;99.90;;;;;;2081780;28;20584;-63
2021/04/12 01:41:29;;;;;;;0.60;0.60;;;1.30;99.90;;;;;;2080826;28;20179;-64
2021/04/12 01:42:36;;;;;;;0.55;0.55;;;1.20;99.90;;;;;;2078789;28;20320;-63
2021/04/12 01:44:26;;;;;;;0.57;0.52;;;1.20;99.90;;;;;;2081083;28;20235;-64
2021/04/12 01:45:45;;;;;;;0.60;0.60;;;1.20;99.90;;;;;;2081637;28;20180;-64
2021/04/12 01:46:58;;;;;;;0.70;0.70;;;1.20;99.90;;;;;;2081009;28;20184;-64
2021/04/12 01:48:19;;;;;;;0.80;0.80;;;1.20;99.90;;;;;;2081164;28;20263;-63
2021/04/12 01:50:15;;;;;;;0.80;0.80;;;1.20;99.90;;;;;;2081020;28;20167;-64
2021/04/12 01:51:15;;;;;;;0.70;0.70;;;1.10;99.90;;;;;;2078842;28;20224;-64
2021/04/12 01:52:42;;;;;;;0.67;0.67;;;1.10;99.90;;;;;;2081574;28;20181;-63
2021/04/12 01:54:20;;;;;;;0.75;0.75;;;1.10;99.90;;;;;;2081226;28;20171;-64
2021/04/12 01:55:51;;;;;;;0.82;0.80;;;1.10;99.90;;;;;;2081396;28;20183;-64
2021/04/12 01:57:16;;;;;;;0.63;0.63;;;1.20;99.90;;;;;;2081079;28;20214;-63
2021/04/12 01:58:38;;;;;;;0.70;0.70;;;1.10;99.90;;;;;;2076019;28;20180;-64
2021/04/12 02:00:18;;;;;;;0.95;0.80;;;1.10;99.90;;;;;;2081289;28;20272;-64
2021/04/12 02:02:05;;;;;;;0.80;0.80;;;1.10;99.90;;;;;;2080447;28;20209;-64
2021/04/12 02:03:39;;;;;;;0.77;0.73;;;1.10;99.90;;;;;;2080805;28;20219;-63
2021/04/12 02:05:07;;;;;;;0.80;0.70;;;1.10;99.90;;;;;;2081047;28;20188;-63
2021/04/12 02:06:13;;;;;;;0.55;0.55;;;1.10;99.90;;;;;;2081258;28;20167;-64
2021/04/12 02:07:51;;;;;;;0.82;0.82;;;1.10;99.90;;;;;;2081351;28;20234;-64
2021/04/12 02:09:19;;;;;;;0.82;0.82;;;1.10;99.90;;;;;;2081620;28;20188;-64
2021/04/12 02:11:19;;;;;;;0.73;0.73;;;1.00;99.90;;;;;;2081935;28;20192;-62
2021/04/12 02:12:40;;;;;;;0.88;0.88;;;1.00;99.90;;;;;;2080913;28;20197;-63
2021/04/12 02:14:17;;;;;;;0.60;0.60;;;1.00;99.90;;;;;;2081141;28;20237;-64
2021/04/12 02:15:47;;;;;;;1.10;0.70;;;1.00;99.90;;;;;;2081629;28;20541;-64
2021/04/12 02:17:21;;;;;;;0.57;0.57;;;1.00;99.90;;;;;;2081688;28;20176;-63
2021/04/12 02:18:41;;;;;;;0.60;0.60;;;1.00;99.90;;;;;;2080306;28;20186;-63
2021/04/12 02:20:11;;;;;;;0.50;0.50;;;1.00;99.90;;;;;;2083371;28;20194;-64
2021/04/12 02:21:51;;;;;;;0.40;0.40;;;1.00;99.90;;;;;;2084421;28;20214;-62
2021/04/12 02:23:09;;;;;;;0.50;0.50;;;1.00;99.90;;;;;;2078467;28;20822;-64
2021/04/12 02:24:28;;;;;;;0.40;0.40;;;1.00;99.90;;;;;;2089193;28;20168;-64
2021/04/12 02:25:59;;;;;;;0.63;0.60;;;1.00;99.90;;;;;;2089157;28;20888;-63
2021/04/12 02:27:14;;;;;;;0.40;0.40;;;1.00;99.90;;;;;;2089123;28;20260;-64
2021/04/12 02:28:37;;;;;;;0.40;0.40;;;0.90;99.90;;;;;;2082586;28;20182;-63
2021/04/12 02:29:53;;;;;;;0.40;0.40;;;0.90;99.90;;;;;;2083573;28;20175;-64
2021/04/12 02:31:37;;;;;;;0.40;0.40;;;0.90;99.90;;;;;;2082787;28;20203;-64
2021/04/12 02:33:16;;;;;;;0.40;0.40;;;0.90;99.90;;;;;;2089437;28;20182;-64
2021/04/12 02:34:40;;;;;;;0.35;0.35;;;0.90;99.90;;;;;;2089553;28;20328;-64
2021/04/12 02:36:09;;;;;;;0.40;0.40;;;0.90;99.90;;;;;;2089423;28;20240;-63
2021/04/12 02:37:55;;;;;;;0.40;0.40;;;0.90;99.90;;;;;;2089192;28;20172;-64
2021/04/12 02:39:21;;;;;;;0.40;0.40;;;1.00;99.90;;;;;;2088840;28;20340;-64
2021/04/12 02:40:34;;;;;;;0.30;0.30;;;1.00;99.90;;;;;;2089180;28;20168;-64
2021/04/12 02:42:10;;;;;;;0.35;0.35;;;0.90;99.90;;;;;;2089171;28;20184;-64
2021/04/12 02:43:19;;;;;;;0.40;0.40;;;0.90;99.90;;;;;;2089438;28;20381;-63
2021/04/12 02:44:55;;;;;;;0.38;0.38;;;0.80;99.90;;;;;;2089421;28;20216;-64
2021/04/12 02:46:05;;;;;;;0.40;0.40;;;0.90;99.90;;;;;;2088740;28;20186;-64
2021/04/12 02:47:42;;;;;;;0.22;0.22;;;0.90;99.90;;;;;;2088966;28;20171;-64
2021/04/12 02:49:12;;;;;;;0.40;0.40;;;0.90;99.90;;;;;;2088937;28;20673;-64
2021/04/12 02:50:22;;;;;;;0.20;0.20;;;0.80;99.90;;;;;;2084484;28;20164;-64
2021/04/12 02:51:38;;;;;;;0.28;0.28;;;0.80;99.90;;;;;;2088531;28;20254;-64
2021/04/12 02:53:10;;;;;;;0.40;0.40;;;0.80;99.90;;;;;;2088740;28;20555;-64
2021/04/12 02:55:11;;;;;;;0.30;0.30;;;0.70;99.90;;;;;;2089037;28;20666;-64
2021/04/12 02:56:29;;;;;;;0.40;0.30;;;0.80;99.90;;;;;;2080018;28;20252;-64
2021/04/12 02:58:03;;;;;;;0.30;0.30;;;0.70;99.90;;;;;;2089622;28;20178;-64
2021/04/12 02:59:32;;;;;;;0.30;0.30;;;0.70;99.90;;;;;;2088798;28;20332;-64
2021/04/12 03:00:56;;;;;;;0.30;0.30;;;0.80;99.90;;;;;;2088877;28;20166;-64
2021/04/12 03:02:26;;;;;;;0.30;0.30;;;0.70;99.90;;;;;;2086079;28;20169;-64
2021/04/12 03:03:45;;;;;;;0.30;0.30;;;0.70;99.90;;;;;;2088941;28;20309;-64
2021/04/12 03:05:17;;;;;;;0.40;0.40;;;0.70;99.90;;;;;;2088980;28;20173;-64
2021/04/12 03:06:48;;;;;;;0.30;0.30;;;0.70;99.90;;;;;;2089211;28;20694;-64
2021/04/12 03:07:58;;;;;;;0.30;0.30;;;0.80;99.90;;;;;;2089324;28;20178;-64
2021/04/12 03:09:32;;;;;;;0.40;0.40;;;0.70;99.90;;;;;;2089247;28;20255;-64
2021/04/12 03:10:44;;;;;;;0.30;0.30;;;0.70;99.90;;;;;;2089244;28;20204;-64
2021/04/12 03:12:05;;;;;;;0.45;0.40;;;0.70;99.90;;;;;;2089152;28;20179;-63
2021/04/12 03:13:18;;;;;;;0.40;0.40;;;0.70;99.90;;;;;;2089091;28;20178;-64
2021/04/12 03:14:39;;;;;;;0.40;0.40;;;0.70;99.90;;;;;;2089148;28;20663;-64
2021/04/12 03:15:46;;;;;;;0.30;0.30;;;0.70;99.90;;;;;;2089146;28;20621;-64
2021/04/12 03:17:17;;;;;;;0.30;0.30;;;0.70;99.90;;;;;;2088975;28;20181;-64
2021/04/12 03:19:07;;;;;;;0.40;0.40;;;0.70;99.90;;;;;;2088557;28;20162;-64
2021/04/12 03:20:41;;;;;;;0.40;0.40;;;0.70;99.90;;;;;;2089134;28;20168;-65
2021/04/12 03:22:38;;;;;;;0.30;0.30;;;0.70;99.90;;;;;;2088788;28;20612;-64
2021/04/12 03:24:13;;;;;;;0.30;0.30;;;0.70;99.90;;;;;;2089067;28;20201;-64
2021/04/12 03:25:34;;;;;;;0.40;0.40;;;0.70;99.90;;;;;;2089111;28;20191;-64
2021/04/12 03:27:28;;;;;;;0.40;0.40;;;0.70;99.90;;;;;;2088709;28;20232;-65
2021/04/12 03:28:58;;;;;;;0.55;0.55;;;0.70;99.90;;;;;;2087462;28;20277;-64
2021/04/12 03:30:31;;;;;;;0.40;0.40;;;0.70;99.90;;;;;;2088844;28;20177;-64
2021/04/12 03:32:06;;;;;;;0.47;0.47;;;0.80;99.90;;;;;;2088924;28;20177;-64
2021/04/12 03:33:18;;;;;;;0.40;0.40;;;0.70;99.90;;;;;;2089181;28;20514;-65
2021/04/12 03:34:38;;;;;;;0.40;0.40;;;0.70;99.90;;;;;;2088527;28;20672;-65
2021/04/12 03:36:00;;;;;;;0.30;0.30;;;0.70;99.90;;;;;;2082773;28;20177;-64
2021/04/12 03:37:21;;;;;;;0.70;0.47;;;0.70;99.90;;;;;;2083122;28;20304;-65
2021/04/12 03:38:42;;;;;;;0.40;0.40;;;0.70;99.90;;;;;;2088607;28;20290;-65
2021/04/12 03:40:06;;;;;;;0.40;0.40;;;0.70;99.90;;;;;;2089107;28;20220;-65
2021/04/12 03:41:25;;;;;;;0.30;0.30;;;0.70;99.90;;;;;;2088901;28;20232;-64
2021/04/12 03:43:19;;;;;;;0.50;0.50;;;0.70;99.90;;;;;;2088969;28;20184;-65
2021/04/12 03:44:45;;;;;;;0.40;0.40;;;0.70;99.90;;;;;;2089106;28;20220;-65
2021/04/12 03:46:22;;;;;;;0.30;0.30;;;0.70;99.90;;;;;;2089217;28;20227;-65
2021/04/12 03:47:40;;;;;;;0.30;0.30;;;0.60;99.90;;;;;;2089203;28;20288;-64
2021/04/12 03:49:20;;;;;;;0.30;0.30;;;0.60;99.90;;;;;;2089049;28;20679;-65
2021/04/12 03:50:44;;;;;;;0.40;0.40;;;0.70;99.90;;;;;;2089870;28;20177;-65
2021/04/12 03:52:06;;;;;;;0.47;0.30;;;0.70;99.90;;;;;;2090266;28;20167;-65
2021/04/12 03:54:03;;;;;;;0.20;0.20;;;0.60;99.90;;;;;;2090811;28;20190;-65
2021/04/12 03:55:37;;;;;;;0.40;0.40;;;0.60;99.90;;;;;;2090747;28;20183;-65
2021/04/12 03:57:14;;;;;;;0.30;0.30;;;0.60;99.90;;;;;;2090003;28;20256;-65
2021/04/12 03:58:42;;;;;;;0.40;0.40;;;0.60;99.90;;;;;;2090512;28;20241;-65
2021/04/12 04:00:00;;;;;;;0.45;0.45;;;0.60;99.90;;;;;;2090823;28;20194;-64
2021/04/12 04:01:43;;;;;;;0.30;0.30;;;0.60;99.90;;;;;;2090648;28;20726;-65
2021/04/12 04:03:22;;;;;;;0.30;0.30;;;0.60;99.90;;;;;;2090733;28;20209;-65
2021/04/12 04:04:46;;;;;;;0.40;0.40;;;0.60;99.90;;;;;;2090130;28;20662;-65
2021/04/12 04:06:19;;;;;;;0.30;0.30;;;0.60;99.90;;;;;;2090495;28;20155;-66
2021/04/12 04:08:00;;;;;;;0.40;0.40;;;0.60;99.90;;;;;;2069737;28;20198;-66
2021/04/12 04:09:24;;;;;;;0.40;0.40;;;0.60;99.90;;;;;;2090751;28;20169;-66
2021/04/12 04:11:02;;;;;;;0.80;0.80;;;0.60;99.90;;;;;;2090887;28;20182;-64
2021/04/12 04:12:40;;;;;;;0.65;0.65;;;0.60;99.90;;;;;;2090816;28;20177;-65
2021/04/12 04:13:52;;;;;;;0.50;0.50;;;0.60;99.90;;;;;;2090763;28;20196;-65
2021/04/12 04:15:17;;;;;;;0.50;0.50;;;0.60;99.90;;;;;;2090793;28;20219;-65
2021/04/12 04:16:54;;;;;;;0.40;0.40;;;0.60;99.90;;;;;;2090725;28;20673;-65
2021/04/12 04:18:24;;;;;;;0.30;0.30;;;0.50;99.90;;;;;;2090621;28;20236;-66
2021/04/12 04:19:49;;;;;;;0.40;0.40;;;0.40;99.90;;;;;;2090549;28;20185;-65
2021/04/12 04:20:49;;;;;;;0.50;0.50;;;0.50;99.90;;;;;;2090552;28;20239;-65
2021/04/12 04:22:21;;;;;;;0.50;0.50;;;0.40;99.90;;;;;;2090353;28;20187;-65
2021/04/12 04:23:58;;;;;;;0.60;0.60;;;0.50;99.90;;;;;;2090477;28;20598;-65
2021/04/12 04:25:30;;;;;;;0.50;0.50;;;0.50;99.90;;;;;;2090669;28;20192;-66
2021/04/12 04:26:52;;;;;;;0.40;0.40;;;0.60;99.90;;;;;;2090147;28;20175;-66
2021/04/12 04:28:18;;;;;;;0.30;0.30;;;0.60;99.90;;;;;;2084613;28;20168;-65
2021/04/12 04:30:14;;;;;;;0.50;0.50;;;0.60;99.90;;;;;;2085364;28;20796;-65
2021/04/12 04:31:29;;;;;;;0.45;0.45;;;0.60;99.90;;;;;;2090571;28;20250;-66
2021/04/12 04:32:53;;;;;;;0.38;0.38;;;0.50;99.90;;;;;;2090639;28;20663;-65
2021/04/12 04:34:20;;;;;;;0.35;0.35;;;0.50;99.90;;;;;;2089898;28;20176;-64
2021/04/12 04:36:08;;;;;;;0.40;0.40;;;0.40;99.90;;;;;;2090494;28;20183;-65
2021/04/12 04:37:40;;;;;;;0.40;0.40;;;0.40;99.90;;;;;;2090722;28;20197;-65
2021/04/12 04:39:16;;;;;;;0.40;0.40;;;0.40;99.90;;;;;;2066934;28;20194;-66
2021/04/12 04:40:44;;;;;;;0.40;0.40;;;0.40;99.90;;;;;;2090721;28;20542;-65
2021/04/12 04:42:16;;;;;;;0.40;0.40;;;0.50;99.90;;;;;;2089853;28;20557;-66
2021/04/12 04:43:50;;;;;;;0.40;0.40;;;0.40;99.90;;;;;;2108659;22;20220;-71
2021/04/12 04:45:18;;;;;;;0.40;0.40;;;0.50;99.90;;;;;;2091470;28;20612;-71
2021/04/12 04:46:38;;;;;;;0.57;0.30;;;0.40;99.90;;;;;;2091554;28;20292;-71
2021/04/12 04:48:07;;;;;;;0.40;0.40;;;0.40;99.90;;;;;;2091462;28;20228;-71
2021/04/12 04:49:42;;;;;;;0.60;0.60;;;0.40;99.90;;;;;;2091109;28;20179;-70
2021/04/12 04:51:13;;;;;;;0.38;0.38;;;0.40;99.90;;;;;;2087402;28;20630;-70
2021/04/12 04:52:20;;;;;;;0.40;0.40;;;0.40;99.90;;;;;;2089527;28;20553;-71
2021/04/12 04:54:00;;;;;;;0.43;0.43;;;0.40;99.90;;;;;;2076944;28;20297;-71
2021/04/12 04:55:07;;;;;;;0.30;0.30;;;0.40;99.90;;;;;;2074756;28;20187;-70
2021/04/12 04:56:24;;;;;;;0.50;0.50;;;0.40;99.90;;;;;;2067959;28;20196;-71
2021/04/12 04:57:42;;;;;;;0.50;0.50;;;0.40;99.90;;;;;;2069501;28;20611;-72
2021/04/12 04:59:12;;;;;;;0.40;0.40;;;0.40;99.90;;;;;;2069500;28;20166;-70
2021/04/12 05:00:25;;;;;;;0.30;0.30;;;0.50;99.90;;;;;;2074307;28;20208;-71
2021/04/12 05:01:58;;;;;;;0.35;0.35;;;0.50;99.90;;;;;;2074768;28;20218;-71
2021/04/12 05:03:18;;;;;;;0.60;0.50;;;0.40;99.90;;;;;;2075012;28;20198;-70
2021/04/12 05:04:49;;;;;;;0.40;0.40;;;0.50;99.90;;;;;;2076324;28;20180;-71
2021/04/12 05:06:21;;;;;;;1.15;0.80;;;0.50;99.90;;;;;;2074419;28;20167;-71
2021/04/12 05:08:12;;;;;;;0.82;0.70;;;0.50;99.90;;;;;;2074726;28;20238;-71
2021/04/12 05:09:53;;;;;;;0.60;0.60;;;0.50;99.90;;;;;;2075700;28;20166;-72
2021/04/12 05:11:44;;;;;;;0.80;0.80;;;0.50;99.90;;;;;;2075712;28;20183;-71
2021/04/12 05:13:16;;;;;;;0.60;0.60;;;0.50;99.90;;;;;;2075776;28;20181;-70
2021/04/12 05:14:51;;;;;;;0.40;0.40;;;0.50;99.90;;;;;;2075839;28;20219;-71
2021/04/12 05:16:46;;;;;;;0.40;0.40;;;0.50;99.90;;;;;;2075319;28;20235;-70
2021/04/12 05:17:55;;;;;;;0.80;0.80;;;0.40;99.90;;;;;;2075642;28;20632;-70
2021/04/12 05:19:27;;;;;;;0.50;0.50;;;0.40;99.90;;;;;;2075771;28;20271;-70
2021/04/12 05:20:54;;;;;;;0.68;0.68;;;0.40;99.90;;;;;;2075278;28;20271;-68
2021/04/12 05:22:34;;;;;;;2.20;0.75;;;0.40;99.90;;;;;;2075286;28;20247;-70
2021/04/12 05:23:54;;;;;;;0.90;0.60;;;0.40;99.90;;;;;;2075135;28;20243;-71
2021/04/12 05:25:38;;;;;;;0.80;0.80;;;0.40;99.90;;;;;;2069182;28;20203;-71
2021/04/12 05:27:04;;;;;;;0.60;0.60;;;0.40;99.90;;;;;;2075607;28;20237;-71
2021/04/12 05:28:32;;;;;;;0.75;0.75;;;0.40;99.90;;;;;;2075081;28;20178;-72
2021/04/12 05:29:50;;;;;;;1.05;0.82;;;0.50;99.90;;;;;;2078767;28;20217;-71
2021/04/12 05:31:24;;;;;;;0.98;0.90;;;0.60;99.90;;;;;;2083129;28;20580;-71
2021/04/12 05:32:30;;;;;;;0.40;0.40;;;0.50;99.90;;;;;;2083456;28;20267;-71
2021/04/12 05:34:04;;;;;;;0.38;0.38;;;0.60;99.90;;;;;;2082730;28;20440;-71
2021/04/12 05:35:34;;;;;;;0.40;0.40;;;0.50;99.90;;;;;;2075737;28;20175;-70
2021/04/12 05:36:52;;;;;;;1.38;0.50;;;0.50;99.90;;;;;;2075363;28;20230;-70
2021/04/12 05:38:41;;;;;;;0.60;0.60;;;0.50;99.90;;;;;;2075408;28;20753;-71
2021/04/12 05:40:12;;;;;;;1.70;1.33;;;0.50;99.90;;;;;;2074914;28;20165;-71
2021/04/12 05:41:43;;;;;;;0.60;0.60;;;0.60;99.90;;;;;;2070598;28;20190;-70
2021/04/12 05:43:14;;;;;;;0.70;0.70;;;0.50;99.90;;;;;;2073795;28;20206;-71
2021/04/12 05:44:39;;;;;;;0.70;0.70;;;0.60;99.90;;;;;;2072899;28;20194;-71
2021/04/12 05:45:39;;;;;;;0.60;0.60;;;0.50;99.90;;;;;;2073064;28;20550;-71
2021/04/12 05:47:15;;;;;;;0.73;0.60;;;0.60;99.90;;;;;;2073562;28;20191;-71
2021/04/12 05:48:51;;;;;;;1.30;1.15;;;0.60;99.90;;;;;;2072796;28;20194;-72
2021/04/12 05:50:01;;;;;;;0.60;0.60;;;0.60;99.90;;;;;;2069518;28;20233;-71
2021/04/12 05:51:27;;;;;;;0.55;0.55;;;0.70;99.90;;;;;;2066123;28;20169;-71
2021/04/12 05:53:04;;;;;;;0.57;0.57;;;0.70;99.90;;;;;;2068175;28;20190;-71
2021/04/12 05:54:22;;;;;;;0.70;0.52;;;0.70;99.90;;;;;;2073565;28;20266;-72
2021/04/12 05:56:35;;;;;;;1.08;1.00;;;0.70;99.90;;;;;;2072926;28;20225;-71
2021/04/12 05:58:24;;;;;;;0.60;0.60;;;0.70;99.90;;;;;;2040470;29;20173;-70
2021/04/12 06:00:14;;;;;;;0.80;0.70;;;0.70;99.90;;;;;;2040506;29;20200;-70
2021/04/12 06:01:43;;;;;;;2.40;1.20;;;0.70;99.90;;;;;;2035074;29;20199;-70
2021/04/12 06:03:02;;;;;;;1.08;0.93;;;0.60;99.90;;;;;;2065081;28;20188;-70
2021/04/12 06:04:14;;;;;;;0.68;0.60;;;0.70;99.90;;;;;;2078972;28;20191;-71
2021/04/12 06:05:29;;;;;;;0.60;0.50;;;0.60;99.90;;;;;;2073250;28;20623;-70
2021/04/12 06:06:47;;;;;;;0.60;0.60;;;0.70;99.90;;;;;;2072822;28;20568;-70
2021/04/12 06:08:22;;;;;;;0.60;0.60;;;0.70;99.90;;;;;;2067020;28;20181;-70
2021/04/12 06:09:56;;;;;;;0.85;0.80;;;0.70;99.90;;;;;;2073225;28;20183;-70
2021/04/12 06:11:40;;;;;;;0.80;0.80;;;0.70;99.90;;;;;;2073195;28;20252;-70
2021/04/12 06:13:17;;;;;;;0.70;0.70;;;0.80;99.90;;;;;;2072448;28;20188;-70
2021/04/12 06:14:52;;;;;;;0.68;0.68;;;0.80;99.90;;;;;;2073353;28;20174;-71
2021/04/12 06:15:58;;;;;;;0.60;0.60;;;0.80;99.90;;;;;;2072772;28;20166;-70
2021/04/12 06:17:20;;;;;;;0.60;0.60;;;0.80;99.90;;;;;;2073615;28;20192;-70
2021/04/12 06:18:48;;;;;;;0.65;0.65;;;0.80;99.90;;;;;;2076718;28;20203;-70
2021/04/12 06:20:34;;;;;;;0.50;0.50;;;0.80;99.90;;;;;;2077648;28;20186;-69
2021/04/12 06:22:08;;;;;;;0.60;0.60;;;0.80;99.90;;;;;;2075530;28;20187;-69
2021/04/12 06:24:08;;;;;;;0.70;0.60;;;0.80;99.90;;;;;;2077622;28;20294;-69
2021/04/12 06:25:49;;;;;;;0.55;0.55;;;0.80;99.90;;;;;;2077092;28;20184;-69
2021/04/12 06:27:13;;;;;;;1.42;0.75;;;0.80;99.90;;;;;;2077658;28;20605;-69
2021/04/12 06:28:48;;;;;;;0.70;0.70;;;0.80;99.90;;;;;;2078407;28;20245;-69
2021/04/12 06:30:34;;;;;;;0.80;0.80;;;0.90;99.90;;;;;;2076609;28;20184;-69
2021/04/12 06:32:29;;;;;;;0.65;0.65;;;0.90;99.90;;;;;;2076411;28;20206;-69
2021/04/12 06:33:46;;;;;;;0.52;0.52;;;0.90;99.90;;;;;;2075779;28;20284;-69
2021/04/12 06:35:05;;;;;;;0.80;0.68;;;0.90;99.90;;;;;;2078745;28;20256;-69
2021/04/12 06:36:47;;;;;;;0.60;0.60;;;0.90;99.90;;;;;;2082042;28;20216;-69
2021/04/12 06:38:17;;;;;;;0.88;0.88;;;0.90;99.90;;;;;;2076551;28;20635;-69
2021/04/12 06:39:39;;;;;;;1.00;0.90;;;1.00;99.90;;;;;;2077039;28;20707;-69
2021/04/12 06:41:17;;;;;;;2.17;1.10;;;1.00;99.90;;;;;;2083299;28;20249;-69
2021/04/12 06:42:49;;;;;;;0.77;0.77;;;1.10;99.90;;;;;;2080434;28;20266;-69
2021/04/12 06:44:36;;;;;;;1.75;0.90;;;1.10;99.90;;;;;;2076362;28;20229;-69
2021/04/12 06:46:25;;;;;;;1.15;1.05;;;1.10;99.90;;;;;;2077625;28;20656;-69
2021/04/12 06:47:56;;;;;;;0.80;0.80;;;1.20;99.90;;;;;;2075922;28;20179;-69
2021/04/12 06:49:58;;;;;;;0.73;0.73;;;1.30;99.90;;;;;;2077428;28;20279;-69
2021/04/12 06:51:24;;;;;;;2.22;0.80;;;1.30;99.90;;;;;;2072843;28;20627;-68
2021/04/12 06:53:05;;;;;;;1.10;0.82;;;1.30;99.90;;;;;;2075271;28;20213;-67
2021/04/12 06:54:21;;;;;;;0.90;0.80;;;1.30;99.90;;;;;;2055597;28;20325;-68
2021/04/12 06:55:53;;;;;;;0.70;0.70;;;1.40;99.90;;;;;;2077627;28;20177;-68
2021/04/12 06:57:27;;;;;;;1.15;0.80;;;1.50;99.90;;;;;;2069023;28;20206;-68
2021/04/12 06:59:15;;;;;;;0.60;0.60;;;1.50;99.90;;;;;;2074878;28;20187;-68
2021/04/12 07:00:40;;;;;;;0.77;0.77;;;1.60;99.90;;;;;;2074339;28;20214;-68
2021/04/12 07:02:25;;;;;;;0.60;0.60;;;1.70;99.90;;;;;;2074944;28;20255;-68
2021/04/12 07:04:28;;;;;;;0.70;0.70;;;1.80;99.90;;;;;;2077295;28;20212;-68
2021/04/12 07:06:01;;;;;;;0.50;0.50;;;1.80;99.90;;;;;;2083299;28;20830;-68
2021/04/12 07:07:35;;;;;;;0.52;0.52;;;1.80;99.90;;;;;;2080948;28;20198;-68
2021/04/12 07:09:05;;;;;;;0.90;0.90;;;1.80;99.90;;;;;;2076095;28;20177;-68
2021/04/12 07:10:33;;;;;;;0.60;0.60;;;1.80;99.90;;;;;;2077745;28;20189;-68
2021/04/12 07:12:09;;;;;;;0.70;0.60;;;1.80;99.90;;;;;;2072676;28;20196;-68
2021/04/12 07:13:54;;;;;;;0.60;0.60;;;1.80;99.90;;;;;;2072568;28;20243;-68
2021/04/12 07:15:28;;;;;;;0.77;0.63;;;1.80;99.90;;;;;;2072333;28;20188;-68
2021/04/12 07:17:00;;;;;;;0.77;0.73;;;1.90;99.90;;;;;;2068540;28;20901;-68
2021/04/12 07:18:36;;;;;;;0.50;0.50;;;2.00;99.90;;;;;;2068372;28;20183;-68
2021/04/12 07:20:18;;;;;;;0.65;0.65;;;2.10;99.90;;;;;;2068914;28;20183;-68
2021/04/12 07:21:40;;;;;;;0.65;0.65;;;2.10;99.90;;;;;;2072351;28;20181;-68
2021/04/12 07:23:20;;;;;;;0.60;0.60;;;2.00;99.90;;;;;;2072220;28;20931;-68
2021/04/12 07:24:50;;;;;;;0.65;0.65;;;2.00;99.90;;;;;;2069196;28;20671;-68
2021/04/12 07:26:36;;;;;;;0.80;0.80;;;2.00;99.90;;;;;;2027882;29;20230;-68
2021/04/12 07:28:06;;;;;;;0.75;0.75;;;2.10;99.90;;;;;;2072624;28;20251;-68
2021/04/12 07:29:24;;;;;;;0.80;0.80;;;2.20;99.90;;;;;;2047417;29;20190;-68
2021/04/12 07:31:02;;;;;;;1.17;0.77;;;2.30;99.90;;;;;;2072680;28;20232;-68
2021/04/12 07:32:42;;;;;;;0.85;0.85;;;2.40;99.90;;;;;;2072453;28;20295;-68
2021/04/12 07:34:09;;;;;;;0.80;0.80;;;2.60;99.90;;;;;;2075436;28;20201;-68
2021/04/12 07:35:42;;;;;;;0.80;0.80;;;2.70;99.90;;;;;;2075907;28;20208;-68
2021/04/12 07:37:33;;;;;;;0.80;0.80;;;2.60;99.90;;;;;;2072491;28;20179;-68
2021/04/12 07:39:23;;;;;;;0.95;0.95;;;2.60;99.90;;;;;;2072778;28;20236;-68
2021/04/12 07:41:07;;;;;;;1.10;1.00;;;2.50;99.90;;;;;;2072683;28;20238;-68
2021/04/12 07:42:37;;;;;;;1.13;1.02;;;2.40;99.90;;;;;;2080961;28;20188;-68
2021/04/12 07:44:33;;;;;;;1.10;1.00;;;2.30;99.90;;;;;;2080736;28;20215;-68
2021/04/12 07:45:55;;;;;;;1.20;1.10;;;2.30;99.90;;;;;;2081095;28;20211;-69
2021/04/12 07:47:44;;;;;;;1.30;1.20;;;2.50;99.90;;;;;;2080947;28;20299;-68
2021/04/12 07:49:46;;;;;;;1.40;1.30;;;2.70;99.90;;;;;;2072216;28;20186;-68
2021/04/12 07:51:28;;;;;;;3.30;1.48;;;2.70;99.90;;;;;;2080337;28;20181;-68
2021/04/12 07:52:50;;;;;;;1.67;1.55;;;2.70;99.90;;;;;;2080771;28;20193;-68
2021/04/12 07:54:28;;;;;;;1.80;1.50;;;2.70;99.90;;;;;;2080799;28;20211;-68
2021/04/12 07:55:56;;;;;;;2.25;1.83;;;2.70;99.90;;;;;;2080893;28;20177;-68